Main page
METAR-TAF:

METAR-TAF

Airports :

Valencia, Spain

Valencia Airport

latitude: 39-30N, longitude: 000-28W, elevation: 69 m

Current weather observation

The report was made 21 minutes ago, at 03:30 UTC
Wind 6 kt from the West/Northwest
Temperature 18°C
Humidity 83%
Pressure 1020 hPa
Visibility 10 km or more
no clouds below 1500 m and no cumulonimbus

METAR: LEVC 200330Z 30006KT CAVOK 18/15 Q1020 NOSIG

Time: 05:51 (03:51 UTC)

Forecast

The report was made 4 hours and 51 minutes ago, at 23:00 UTC
Forecast valid from 20 at 00 UTC to 20 at 24 UTC
Wind 4 kt from variable directions
Visibility 10 km or more
Few clouds at a height of 4000 ft
Temporary
from 20 at 00 UTC to 20 at 10 UTC
Broken clouds at a height of 1400 ft
Becoming
from 20 at 08 UTC to 20 at 11 UTC
Wind 10 kt from the East/Southeast
Becoming
from 20 at 18 UTC to 20 at 21 UTC
Wind 3 kt from variable directions

TAF: LEVC 192300Z 2000/2024 VRB04KT 9999 FEW040 TX27/2013Z TN16/2006Z TEMPO 2000/2010 BKN014 BECMG 2008/2011 11010KT BECMG 2018/2021 VRB03KT

Weather observations and forecasts of more than 4000 airports (METAR and TAF reports).

The available stations are represented by yellow and red dots on the map.

Hover mouse over dot to see the name of the station.

Then click to see weather observations and forecasts.

To change the map : click on the green buttons with a black cross to zoom in, on the green button with a dash to zoom out, or on the green arrows for adjacent maps.


METAR-TAF: